Time;durP1;ratioP1;P1;durP2;ratioP2;P2;SDS_P1;SDS_P2;PMS_P1;PMS_P2;Temp;Humidity;BMP_temperature;BMP_pressure;BME280_temperature;BME280_humidity;BME280_pressure;Samples;Min_cycle;Max_cycle;Signal;HPM_P1;HPM_P2
2024/03/30 00:01:47;;;;;;;1.00;0.55;;;;;;;11.04;74.60;99670.72;15422985;28;20039;-45
2024/03/30 00:09:21;;;;;;;0.10;0.05;;;;;;;10.98;74.93;99673.31;15504209;28;20051;-51
2024/03/30 00:16:57;;;;;;;0.00;0.00;;;;;;;10.92;74.32;99685.00;15420283;28;20185;-47
2024/03/30 00:24:30;;;;;;;0.00;0.00;;;;;;;10.80;74.55;99673.47;15419700;28;20088;-47
2024/03/30 00:32:07;;;;;;;0.00;0.00;;;;;;;10.69;74.68;99677.03;15413548;28;20058;-46
2024/03/30 00:39:42;;;;;;;0.10;0.10;;;;;;;10.59;74.97;99680.31;15438778;28;20130;-46
2024/03/30 00:47:18;;;;;;;0.43;0.38;;;;;;;10.58;75.12;99662.56;15418436;28;20058;-46
2024/03/30 00:54:52;;;;;;;0.00;0.00;;;;;;;10.29;75.36;99640.22;15418732;28;20557;-48
2024/03/30 01:02:27;;;;;;;1.00;0.28;;;;;;;10.27;75.05;99650.38;15410557;28;20097;-49
2024/03/30 01:10:04;;;;;;;0.10;0.10;;;;;;;10.15;75.27;99638.81;15415299;28;20078;-48
2024/03/30 01:17:41;;;;;;;0.00;0.00;;;;;;;10.06;75.64;99638.34;15418619;28;20053;-47
2024/03/30 01:25:16;;;;;;;1.00;0.90;;;;;;;10.03;76.05;99629.97;15412673;28;20112;-47
2024/03/30 01:32:55;;;;;;;0.47;0.30;;;;;;;9.92;78.47;99635.06;15413218;28;20062;-46
2024/03/30 01:40:32;;;;;;;1.23;0.40;;;;;;;9.77;79.44;99634.72;15431567;28;20053;-47
2024/03/30 01:48:10;;;;;;;0.55;0.52;;;;;;;9.90;79.10;99631.00;15416260;28;20436;-47
2024/03/30 01:55:45;;;;;;;0.00;0.00;;;;;;;9.90;78.01;99641.72;15428596;28;20047;-47
2024/03/30 02:03:22;;;;;;;3.95;0.68;;;;;;;10.02;77.07;99657.81;15394790;28;20054;-47
2024/03/30 02:11:00;;;;;;;1.08;0.68;;;;;;;9.97;76.33;99637.06;15412413;28;20134;-47
2024/03/30 02:18:35;;;;;;;0.10;0.10;;;;;;;9.85;75.87;99641.63;15408856;28;20356;-49
2024/03/30 02:26:09;;;;;;;1.20;1.10;;;;;;;9.65;76.21;99624.00;15482319;28;20092;-49
2024/03/30 02:33:43;;;;;;;0.10;0.10;;;;;;;9.62;76.80;99619.09;15439032;28;20049;-49
2024/03/30 02:41:18;;;;;;;0.32;0.22;;;;;;;9.66;76.55;99616.78;15416210;28;20055;-48
2024/03/30 02:48:54;;;;;;;0.52;0.32;;;;;;;9.27;76.20;99621.69;15411873;28;20157;-49
2024/03/30 02:56:29;;;;;;;0.20;0.20;;;;;;;9.48;76.39;99609.66;15410118;28;20046;-49
2024/03/30 03:04:05;;;;;;;1.27;0.35;;;;;;;9.53;76.61;99617.00;15420371;28;20038;-48
2024/03/30 03:11:41;;;;;;;0.00;0.00;;;;;;;9.31;75.47;99622.06;15422664;28;20557;-51
2024/03/30 03:19:19;;;;;;;0.28;0.28;;;;;;;9.22;76.08;99621.56;15423997;28;20061;-49
2024/03/30 03:26:54;;;;;;;0.00;0.00;;;;;;;8.81;77.22;99604.47;15422603;28;20835;-48
2024/03/30 03:34:29;;;;;;;1.00;0.80;;;;;;;9.11;76.42;99606.31;15456965;28;20041;-47
2024/03/30 03:42:05;;;;;;;0.47;0.28;;;;;;;8.67;79.18;99595.81;15423903;28;20055;-47
2024/03/30 03:49:38;;;;;;;1.55;0.45;;;;;;;9.15;77.40;99597.59;15420218;28;20063;-50
2024/03/30 03:57:14;;;;;;;0.68;0.68;;;;;;;8.54;79.17;99608.53;15415077;28;20554;-48
2024/03/30 04:04:51;;;;;;;0.75;0.32;;;;;;;8.43;81.00;99596.69;15421368;28;20055;-48
2024/03/30 04:12:28;;;;;;;0.40;0.40;;;;;;;8.52;82.27;99603.38;15421151;28;20053;-47
2024/03/30 04:20:02;;;;;;;0.10;0.10;;;;;;;8.93;79.79;99609.84;15414093;28;20046;-47
2024/03/30 04:27:42;;;;;;;0.90;0.60;;;;;;;8.09;83.29;99598.91;15418029;28;20084;-48
2024/03/30 04:35:23;;;;;;;1.50;0.77;;;;;;;8.53;81.87;99613.03;15453033;28;20070;-48
2024/03/30 04:42:59;;;;;;;0.22;0.22;;;;;;;8.44;81.84;99617.06;15421085;28;20465;-48
2024/03/30 04:50:37;;;;;;;3.13;0.90;;;;;;;8.65;80.77;99613.91;15413705;28;20066;-47
2024/03/30 04:58:20;;;;;;;0.05;0.05;;;;;;;8.37;82.28;99627.84;15416862;28;20051;-48
2024/03/30 05:05:53;;;;;;;0.13;0.10;;;;;;;7.67;86.44;99603.22;15417294;28;20053;-47
2024/03/30 05:13:28;;;;;;;;;;;;;;;8.19;83.78;99601.06;15419273;28;20039;-48
2024/03/30 05:21:02;;;;;;;0.10;0.10;;;;;;;8.64;83.31;99608.81;15413436;28;20061;-48
2024/03/30 05:28:39;;;;;;;0.10;0.10;;;;;;;9.00;81.32;99610.59;15419018;28;20516;-47
2024/03/30 05:36:14;;;;;;;0.15;0.15;;;;;;;9.08;79.48;99591.50;15450885;28;20504;-49
2024/03/30 05:43:49;;;;;;;0.00;0.00;;;;;;;9.25;79.47;99594.34;15417203;28;20404;-47
2024/03/30 05:51:26;;;;;;;0.00;0.00;;;;;;;9.54;78.28;99598.00;15495281;28;20046;-48
2024/03/30 05:59:04;;;;;;;0.00;0.00;;;;;;;9.30;78.18;99585.63;15410973;28;20130;-48
2024/03/30 06:06:42;;;;;;;0.10;0.10;;;;;;;9.45;78.31;99591.34;15500789;28;20415;-48
2024/03/30 06:14:17;;;;;;;0.10;0.10;;;;;;;8.84;81.15;99597.84;15409743;28;20051;-47
2024/03/30 06:21:52;;;;;;;0.10;0.10;;;;;;;9.42;78.67;99591.84;15406040;28;20050;-47
2024/03/30 06:29:27;;;;;;;0.45;0.20;;;;;;;9.20;79.42;99588.88;15416216;28;20043;-50
2024/03/30 06:37:04;;;;;;;0.13;0.10;;;;;;;9.85;76.68;99593.38;15442784;28;20066;-50
2024/03/30 06:44:39;;;;;;;0.00;0.00;;;;;;;10.03;75.16;99603.97;15406414;28;20297;-49
2024/03/30 06:52:13;;;;;;;0.70;0.65;;;;;;;10.11;76.16;99594.72;15412144;28;20076;-50
2024/03/30 06:59:48;;;;;;;;;;;;;;;10.01;76.02;99599.88;15416743;28;20439;-47
2024/03/30 07:07:21;;;;;;;0.10;0.10;;;;;;;10.65;73.81;99593.47;15425323;28;20349;-49
2024/03/30 07:14:57;;;;;;;1.30;1.00;;;;;;;11.09;72.50;99599.13;15414075;28;20042;-48
2024/03/30 07:22:30;;;;;;;0.00;0.00;;;;;;;11.96;70.59;99579.03;15411955;28;20039;-50
2024/03/30 07:30:07;;;;;;;0.30;0.30;;;;;;;12.07;70.60;99577.28;15411284;28;20042;-50
2024/03/30 07:37:42;;;;;;;0.10;0.10;;;;;;;13.19;66.26;99582.06;15434404;28;20047;-49
2024/03/30 07:45:17;;;;;;;0.00;0.00;;;;;;;12.58;69.27;99572.53;15410994;28;20465;-55
2024/03/30 07:52:51;;;;;;;0.90;0.40;;;;;;;13.62;64.57;99585.69;15412522;28;20104;-48
2024/03/30 08:00:27;;;;;;;2.28;0.73;;;;;;;14.43;62.66;99604.25;15504239;28;20523;-51
2024/03/30 08:08:01;;;;;;;0.00;0.00;;;;;;;14.57;62.14;99587.59;15423991;28;20058;-52
2024/03/30 08:15:40;;;;;;;0.40;0.40;;;;;;;15.37;59.72;99583.41;15423628;28;20396;-54
2024/03/30 08:23:15;;;;;;;0.70;0.70;;;;;;;15.53;59.03;99584.25;15423203;28;20047;-53
2024/03/30 08:30:52;;;;;;;0.32;0.32;;;;;;;16.01;58.50;99585.56;15422311;28;20055;-50
2024/03/30 08:38:25;;;;;;;0.08;0.08;;;;;;;16.06;57.09;99568.50;15423639;28;20047;-49
2024/03/30 08:46:03;;;;;;;0.43;0.43;;;;;;;16.65;55.85;99569.63;15409499;28;20546;-48
2024/03/30 08:53:36;;;;;;;0.82;0.57;;;;;;;16.69;55.35;99568.75;15399732;28;20047;-51
2024/03/30 09:01:12;;;;;;;0.00;0.00;;;;;;;16.69;56.79;99576.09;15400968;28;20129;-53
2024/03/30 09:08:47;;;;;;;1.35;0.57;;;;;;;17.65;55.09;99576.53;15416350;28;20046;-51
2024/03/30 09:16:23;;;;;;;5.50;1.65;;;;;;;17.34;55.61;99574.88;15416115;28;20071;-49
2024/03/30 09:23:56;;;;;;;3.58;1.33;;;;;;;17.13;54.45;99559.06;15503622;28;20042;-53
2024/03/30 09:31:31;;;;;;;5.25;1.55;;;;;;;17.81;53.05;99568.00;15419715;28;20046;-51
2024/03/30 09:39:07;;;;;;;0.60;0.57;;;;;;;18.45;50.97;99567.81;15417310;28;20035;-51
2024/03/30 09:46:47;;;;;;;1.35;1.05;;;;;;;18.81;49.75;99565.47;15406517;28;20076;-52
2024/03/30 09:54:21;;;;;;;2.50;0.88;;;;;;;20.58;46.88;99551.78;15415019;28;20062;-48
2024/03/30 10:01:56;;;;;;;4.57;2.28;;;;;;;20.38;45.04;99544.81;15419634;28;20083;-52
2024/03/30 10:09:31;;;;;;;1.40;1.00;;;;;;;21.57;43.02;99542.63;15403405;28;20142;-50
2024/03/30 10:17:08;;;;;;;2.08;1.42;;;;;;;21.52;44.18;99534.56;15397934;28;20153;-52
2024/03/30 10:24:47;;;;;;;5.55;2.22;;;;;;;22.29;40.88;99527.03;15409969;28;20545;-49
2024/03/30 10:32:21;;;;;;;0.43;0.43;;;;;;;22.90;38.07;99528.78;15412538;28;20059;-51
2024/03/30 10:39:57;;;;;;;2.22;1.45;;;;;;;24.02;38.04;99516.00;15419762;28;20047;-52
2024/03/30 10:47:35;;;;;;;0.55;0.52;;;;;;;23.81;37.70;99517.84;15422420;28;20047;-51
2024/03/30 10:55:08;;;;;;;31.00;3.40;;;;;;;24.26;37.51;99515.38;15430727;28;20451;-52
2024/03/30 11:02:45;;;;;;;2.58;1.55;;;;;;;25.10;33.29;99513.53;15470303;28;20054;-52
2024/03/30 11:10:20;;;;;;;20.95;2.35;;;;;;;25.31;32.50;99499.72;15420933;28;20050;-50
2024/03/30 11:18:01;;;;;;;17.67;2.78;;;;;;;25.30;31.24;99495.38;15410568;28;20073;-49
2024/03/30 11:25:40;;;;;;;3.58;1.73;;;;;;;25.73;31.55;99494.09;15458221;28;20042;-50
2024/03/30 11:33:30;;;;;;;5.45;3.35;;;;;;;26.30;31.80;99490.47;15430008;28;20054;-50
2024/03/30 11:41:05;;;;;;;7.47;3.63;;;;;;;26.10;32.86;99480.38;15457761;28;20066;-49
2024/03/30 11:48:42;;;;;;;15.65;3.05;;;;;;;25.66;35.06;99469.13;15426160;28;20079;-53
2024/03/30 11:56:17;;;;;;;6.25;3.10;;;;;;;25.30;33.01;99458.88;15426233;28;20088;-54
2024/03/30 12:03:52;;;;;;;1.42;0.88;;;;;;;25.93;28.51;99456.69;15427355;28;20503;-49
2024/03/30 12:11:26;;;;;;;6.93;3.00;;;;;;;26.90;27.23;99443.88;15425691;28;20050;-54
2024/03/30 12:19:03;;;;;;;8.80;1.63;;;;;;;26.89;26.09;99439.53;15421351;28;20043;-51
2024/03/30 12:26:38;;;;;;;4.60;1.70;;;;;;;26.07;26.48;99431.59;15509958;28;20051;-48
2024/03/30 12:34:16;;;;;;;9.25;3.85;;;;;;;27.24;24.68;99419.63;15438499;28;20535;-53
2024/03/30 12:41:52;;;;;;;58.03;3.85;;;;;;;26.83;26.57;99416.94;15422694;28;20176;-54
2024/03/30 12:49:32;;;;;;;6.40;2.78;;;;;;;27.79;26.07;99398.56;15427800;28;20122;-51
2024/03/30 12:57:06;;;;;;;29.98;3.92;;;;;;;28.09;27.55;99380.34;15417511;28;20081;-55
2024/03/30 13:04:42;;;;;;;5.43;2.13;;;;;;;27.97;25.54;99369.44;15421733;28;20150;-56
2024/03/30 13:12:17;;;;;;;11.75;3.15;;;;;;;27.34;25.16;99364.00;15423002;28;20427;-51
2024/03/30 13:19:52;;;;;;;2.53;2.33;;;;;;;28.14;23.68;99363.50;15425102;28;20100;-51
2024/03/30 13:27:28;;;;;;;4.43;3.35;;;;;;;26.57;24.99;99370.59;15424184;28;20074;-53
2024/03/30 13:35:07;;;;;;;1.52;1.25;;;;;;;25.65;26.61;99366.66;15455253;28;20051;-51
2024/03/30 13:42:41;;;;;;;21.05;3.53;;;;;;;26.38;26.55;99375.91;15421857;28;20046;-53
2024/03/30 13:50:17;;;;;;;3.03;1.90;;;;;;;26.13;26.20;99369.69;15419733;28;20047;-53
2024/03/30 13:57:53;;;;;;;5.10;2.05;;;;;;;26.15;26.37;99373.69;15415933;28;20051;-53
2024/03/30 14:05:28;;;;;;;2.97;1.33;;;;;;;25.48;30.00;99363.34;15411287;28;20120;-50
2024/03/30 14:13:02;;;;;;;8.68;3.03;;;;;;;25.52;30.74;99354.06;15415143;28;20059;-49
2024/03/30 14:20:38;;;;;;;18.65;3.55;;;;;;;25.51;30.95;99346.16;15415337;28;20131;-50
2024/03/30 14:28:12;;;;;;;0.85;0.75;;;;;;;25.41;30.87;99334.50;15417274;28;20046;-46
2024/03/30 14:35:47;;;;;;;1.85;1.48;;;;;;;24.82;32.52;99326.63;15453007;28;20143;-47
2024/03/30 14:43:20;;;;;;;5.13;2.65;;;;;;;24.79;31.96;99318.25;15416086;28;20108;-47
2024/03/30 14:50:58;;;;;;;1.15;0.77;;;;;;;23.89;34.27;99316.97;15397470;28;20048;-50
2024/03/30 14:58:32;;;;;;;16.02;3.08;;;;;;;22.85;35.36;99304.56;15414799;28;20454;-48
2024/03/30 15:06:10;;;;;;;1.38;1.08;;;;;;;23.52;35.84;99310.41;15441551;28;20458;-52
2024/03/30 15:13:44;;;;;;;11.35;2.42;;;;;;;23.03;35.94;99309.97;15427309;28;20067;-52
2024/03/30 15:21:22;;;;;;;4.55;1.92;;;;;;;22.86;36.81;99313.56;15426178;28;20043;-50
2024/03/30 15:28:55;;;;;;;5.18;2.10;;;;;;;23.57;35.99;99307.47;15426214;28;20460;-47
2024/03/30 15:36:31;;;;;;;2.17;1.70;;;;;;;23.28;37.01;99314.56;15462825;28;20244;-49
2024/03/30 18:50:52;;;;;;;3.33;2.60;;;;;;;18.91;43.26;99325.25;15433627;28;20080;-48
2024/03/30 18:58:28;;;;;;;3.45;2.90;;;;;;;19.14;42.91;99320.75;15416488;28;20047;-48
2024/03/30 19:06:04;;;;;;;2.05;1.27;;;;;;;19.03;43.06;99322.84;15394111;28;20413;-49
2024/03/30 19:13:39;;;;;;;7.55;3.05;;;;;;;19.01;43.87;99322.34;15424086;28;20057;-47
2024/03/30 19:21:15;;;;;;;4.57;2.42;;;;;;;18.92;45.12;99327.66;15460758;28;20505;-50
2024/03/30 19:28:49;;;;;;;4.53;2.75;;;;;;;18.48;45.98;99326.22;15459442;28;20051;-50
2024/03/30 19:36:27;;;;;;;8.18;1.80;;;;;;;18.34;47.31;99323.44;15416540;28;20042;-46
2024/03/30 19:44:03;;;;;;;4.10;2.50;;;;;;;18.08;47.05;99316.78;15413061;28;20075;-51
2024/03/30 19:51:38;;;;;;;5.88;1.75;;;;;;;17.68;47.71;99280.97;15433086;28;20038;-52
2024/03/30 19:59:12;;;;;;;9.63;6.63;;;;;;;17.60;49.29;99315.00;15438497;28;20504;-52
2024/03/30 20:06:47;;;;;;;10.00;4.50;;;;;;;17.68;48.94;99321.69;15451628;28;20383;-48
2024/03/30 20:14:24;;;;;;;10.45;4.88;;;;;;;17.73;48.92;99320.81;15435548;28;20047;-51
2024/03/30 20:21:59;;;;;;;15.60;3.42;;;;;;;17.54;49.30;99327.03;15435721;28;20053;-50
2024/03/30 20:29:33;;;;;;;13.75;2.60;;;;;;;17.29;50.07;99333.53;15416550;28;20126;-52
2024/03/30 20:37:08;;;;;;;8.63;5.30;;;;;;;16.87;48.24;99325.31;15418391;28;20038;-51
2024/03/30 20:44:41;;;;;;;5.15;2.88;;;;;;;16.84;47.78;99324.00;15422854;28;20035;-48
2024/03/30 20:52:16;;;;;;;4.45;2.38;;;;;;;16.94;47.38;99334.75;15417478;28;20081;-49
2024/03/30 20:59:50;;;;;;;3.15;2.83;;;;;;;16.76;47.87;99327.34;15427624;28;20038;-51
2024/03/30 21:07:25;;;;;;;14.75;4.32;;;;;;;17.06;49.16;99337.06;15423953;28;20040;-52
2024/03/30 21:14:59;;;;;;;12.30;5.65;;;;;;;16.94;50.86;99339.38;15441387;28;20039;-52
2024/03/30 21:22:36;;;;;;;22.13;6.05;;;;;;;16.63;48.73;99342.31;15412832;28;20034;-51
2024/03/30 21:30:11;;;;;;;15.10;4.03;;;;;;;16.64;48.72;99343.91;15414206;28;20043;-50
2024/03/30 21:37:48;;;;;;;7.68;3.70;;;;;;;16.93;48.81;99335.84;15438659;28;20042;-53
2024/03/30 21:45:21;;;;;;;16.98;0.68;;;;;;;16.83;47.96;99331.34;15415092;28;20412;-52
2024/03/30 21:52:59;;;;;;;2.40;2.10;;;;;;;16.60;50.84;99329.34;15416053;28;20072;-50
2024/03/30 22:00:33;;;;;;;0.88;0.80;;;;;;;16.50;51.58;99329.41;15508095;28;20125;-52
2024/03/30 22:08:09;;;;;;;23.42;3.25;;;;;;;16.11;53.37;99326.75;15403156;28;20039;-48
2024/03/30 22:15:43;;;;;;;10.00;3.75;;;;;;;15.94;53.86;99321.69;15424209;28;20039;-49
2024/03/30 22:23:18;;;;;;;7.68;2.30;;;;;;;15.76;54.19;99321.28;15408768;28;20337;-48
2024/03/30 22:30:52;;;;;;;8.93;3.72;;;;;;;15.59;55.17;99326.19;15410775;28;20045;-48
2024/03/30 22:38:28;;;;;;;3.10;2.38;;;;;;;15.38;55.79;99314.66;15430353;28;20125;-53
2024/03/30 22:46:09;;;;;;;4.73;2.43;;;;;;;15.19;56.44;99325.25;15408948;28;20103;-50
2024/03/30 22:53:44;;;;;;;7.90;4.50;;;;;;;14.82;57.50;99328.31;15412456;28;20076;-52
2024/03/30 23:01:17;;;;;;;6.80;3.72;;;;;;;15.06;56.88;99309.63;15404400;28;20508;-49
2024/03/30 23:08:57;;;;;;;5.10;4.03;;;;;;;13.88;59.40;99354.69;15412398;28;20047;-52
2024/03/30 23:16:35;;;;;;;8.55;3.97;;;;;;;14.46;56.38;99330.22;15410226;28;20132;-50
2024/03/30 23:24:10;;;;;;;5.68;3.15;;;;;;;15.28;55.12;99320.09;15421389;28;20115;-53
2024/03/30 23:31:46;;;;;;;21.35;2.40;;;;;;;14.68;55.97;99336.16;15413522;28;20053;-51
2024/03/30 23:39:21;;;;;;;5.05;2.75;;;;;;;14.93;56.97;99331.84;15424914;28;20039;-51
2024/03/30 23:46:59;;;;;;;10.10;2.35;;;;;;;14.79;57.20;99337.00;15417214;28;20047;-50
2024/03/30 23:54:38;;;;;;;5.70;3.17;;;;;;;14.78;58.17;99332.66;15421759;28;20039;-49
